createdAt,value
2022-09-15T00:01:44.236Z,20.73
2022-09-15T00:03:47.403Z,21.50
2022-09-15T00:05:50.708Z,21.03
2022-09-15T00:07:53.603Z,21.20
2022-09-15T00:09:58.009Z,21.43
2022-09-15T00:12:00.930Z,21.17
2022-09-15T00:14:05.908Z,22.03
2022-09-15T00:16:15.839Z,21.53
2022-09-15T00:18:18.838Z,23.17
2022-09-15T00:20:22.768Z,19.50
2022-09-15T00:22:26.268Z,20.27
2022-09-15T00:24:29.206Z,21.20
2022-09-15T00:26:33.752Z,22.90
2022-09-15T00:28:37.057Z,22.30
2022-09-15T00:30:44.046Z,21.70
2022-09-15T00:32:46.975Z,22.77
2022-09-15T00:34:51.040Z,23.57
2022-09-15T00:36:53.917Z,22.80
2022-09-15T00:38:57.632Z,23.20
2022-09-15T00:41:01.960Z,23.97
2022-09-15T00:43:10.616Z,22.63
2022-09-15T00:45:17.301Z,21.40
2022-09-15T00:47:22.498Z,22.27
2022-09-15T00:49:27.124Z,24.47
2022-09-15T00:51:35.041Z,24.90
2022-09-15T00:53:38.236Z,23.23
2022-09-15T00:55:44.439Z,24.63
2022-09-15T00:57:52.263Z,24.97
2022-09-15T00:59:58.239Z,25.23
2022-09-15T01:02:04.898Z,24.03
2022-09-15T01:04:07.810Z,23.80
2022-09-15T01:06:17.158Z,22.20
2022-09-15T01:08:25.052Z,23.40
2022-09-15T01:10:29.247Z,22.00
2022-09-15T01:12:32.170Z,24.20
2022-09-15T01:14:35.297Z,25.57
2022-09-15T01:16:48.145Z,24.00
2022-09-15T01:18:56.415Z,23.40
2022-09-15T01:21:08.996Z,24.33
2022-09-15T01:23:36.425Z,24.07
2022-09-15T01:25:54.430Z,24.97
2022-09-15T01:28:20.064Z,27.87
2022-09-15T01:30:24.536Z,27.03
2022-09-15T01:32:47.906Z,25.03
2022-09-15T01:34:56.801Z,25.40
2022-09-15T01:37:03.524Z,27.60
2022-09-15T01:39:11.927Z,24.50
2022-09-15T01:41:17.969Z,25.73
2022-09-15T01:43:22.200Z,26.77
2022-09-15T01:45:30.593Z,24.80
2022-09-15T01:47:34.050Z,26.60
2022-09-15T01:49:40.082Z,26.47
2022-09-15T01:51:43.543Z,25.50
2022-09-15T01:53:47.249Z,25.73
2022-09-15T01:55:54.045Z,24.10
2022-09-15T01:57:56.972Z,25.87
2022-09-15T02:00:00.680Z,23.90
2022-09-15T02:02:06.679Z,24.27
2022-09-15T02:04:12.991Z,26.27
2022-09-15T02:06:21.938Z,24.63
2022-09-15T02:08:27.787Z,25.37
2022-09-15T02:10:35.176Z,23.93
2022-09-15T02:12:42.239Z,27.90
2022-09-15T02:14:49.229Z,26.50
2022-09-15T02:16:55.070Z,25.33
2022-09-15T02:19:08.816Z,27.23
2022-09-15T02:21:15.217Z,26.17
2022-09-15T02:23:19.941Z,26.10
2022-09-15T02:25:28.724Z,25.60
2022-09-15T02:27:37.476Z,24.70
2022-09-15T02:29:41.144Z,25.23
2022-09-15T02:31:45.441Z,24.13
2022-09-15T02:33:50.954Z,23.90
2022-09-15T02:35:55.321Z,23.87
2022-09-15T02:37:59.626Z,24.10
2022-09-15T02:40:03.190Z,23.77
2022-09-15T02:42:25.267Z,24.43
2022-09-15T02:44:30.565Z,23.30
2022-09-15T02:46:34.072Z,23.57
2022-09-15T02:48:37.191Z,22.00
2022-09-15T02:50:41.207Z,22.37
2022-09-15T02:52:45.590Z,22.43
2022-09-15T02:54:48.828Z,21.03
2022-09-15T02:56:54.391Z,21.47
2022-09-15T02:58:57.236Z,24.43
2022-09-15T03:01:02.819Z,24.83
2022-09-15T03:03:05.839Z,23.77
2022-09-15T03:05:10.142Z,20.67
2022-09-15T03:07:13.123Z,20.77
2022-09-15T03:09:17.401Z,21.70
2022-09-15T03:11:21.889Z,21.60
2022-09-15T03:13:24.783Z,22.50
2022-09-15T03:15:28.051Z,21.17
2022-09-15T03:17:35.236Z,20.47
2022-09-15T03:19:38.412Z,22.30
2022-09-15T03:21:41.354Z,21.63
2022-09-15T03:23:44.631Z,21.77
2022-09-15T03:25:48.967Z,19.20
2022-09-15T03:27:51.829Z,21.20
2022-09-15T03:29:54.797Z,21.80
2022-09-15T03:31:57.836Z,20.80
2022-09-15T03:34:00.760Z,21.00
2022-09-15T03:36:04.186Z,21.90
2022-09-15T03:38:07.130Z,22.03
2022-09-15T03:40:11.323Z,19.73
2022-09-15T03:42:15.642Z,23.90
2022-09-15T03:44:18.563Z,22.10
2022-09-15T03:46:22.189Z,21.20
2022-09-15T03:48:25.545Z,23.97
2022-09-15T03:50:29.158Z,23.77
2022-09-15T03:52:32.935Z,23.60
2022-09-15T03:54:36.084Z,21.60
2022-09-15T03:56:39.566Z,23.03
2022-09-15T03:58:43.844Z,21.20
2022-09-15T04:00:47.337Z,25.10
2022-09-15T04:02:50.615Z,22.57
2022-09-15T04:04:53.552Z,22.87
2022-09-15T04:06:56.420Z,22.63
2022-09-15T04:09:00.134Z,22.63
2022-09-15T04:11:05.687Z,23.47
2022-09-15T04:13:08.903Z,23.40
2022-09-15T04:15:13.161Z,24.70
2022-09-15T04:17:16.178Z,23.43
2022-09-15T04:19:19.087Z,23.70
2022-09-15T04:21:23.371Z,24.20
2022-09-15T04:23:26.411Z,24.63
2022-09-15T04:25:29.484Z,23.20
2022-09-15T04:27:34.399Z,25.00
2022-09-15T04:29:40.164Z,22.97
2022-09-15T04:31:44.744Z,23.17
2022-09-15T04:33:48.517Z,24.93
2022-09-15T04:35:51.494Z,24.77
2022-09-15T04:37:55.495Z,25.27
2022-09-15T04:39:58.425Z,24.60
2022-09-15T04:42:05.201Z,22.60
2022-09-15T04:44:08.133Z,23.07
2022-09-15T04:46:15.089Z,23.43
2022-09-15T04:48:19.518Z,26.50
2022-09-15T04:50:22.441Z,24.77
2022-09-15T04:52:25.398Z,23.40
2022-09-15T04:54:28.241Z,22.50
2022-09-15T04:56:31.195Z,23.43
2022-09-15T04:58:37.473Z,24.20
2022-09-15T05:00:43.622Z,24.03
2022-09-15T05:02:46.730Z,23.27
2022-09-15T05:04:51.634Z,22.83
2022-09-15T05:06:54.623Z,25.30
2022-09-15T05:08:59.286Z,23.07
2022-09-15T05:11:03.248Z,25.23
2022-09-15T05:13:06.129Z,22.80
2022-09-15T05:15:09.458Z,23.40
2022-09-15T05:17:12.360Z,25.27
2022-09-15T05:19:15.304Z,23.03
2022-09-15T05:21:21.772Z,22.27
2022-09-15T05:23:25.531Z,23.00
2022-09-15T05:25:28.812Z,22.83
2022-09-15T05:27:32.676Z,25.53
2022-09-15T05:29:35.549Z,22.97
2022-09-15T05:31:38.446Z,20.60
2022-09-15T05:33:41.489Z,23.70
2022-09-15T05:35:51.410Z,22.57
2022-09-15T05:37:55.651Z,21.40
2022-09-15T05:39:59.513Z,22.50
2022-09-15T05:42:07.020Z,19.27
2022-09-15T05:44:13.480Z,22.73
2022-09-15T05:46:17.339Z,20.13
2022-09-15T05:48:20.335Z,21.20
2022-09-15T05:50:23.281Z,21.23
2022-09-15T05:52:26.173Z,19.97
2022-09-15T05:54:30.871Z,19.70
2022-09-15T05:56:34.123Z,20.20
2022-09-15T05:58:37.021Z,19.70
2022-09-15T06:00:40.327Z,20.90
2022-09-15T06:02:43.330Z,19.77
2022-09-15T06:04:46.181Z,20.50
2022-09-15T06:06:49.178Z,20.00
2022-09-15T06:08:58.007Z,19.43
2022-09-15T06:11:05.152Z,20.37
2022-09-15T06:13:09.130Z,20.73
2022-09-15T06:15:13.016Z,18.27
2022-09-15T06:17:16.018Z,20.20
2022-09-15T06:19:19.430Z,18.90
2022-09-15T06:21:23.800Z,20.03
2022-09-15T06:23:26.678Z,20.30
2022-09-15T06:25:29.625Z,20.70
2022-09-15T06:27:34.052Z,19.97
2022-09-15T06:29:37.000Z,18.90
2022-09-15T06:31:40.517Z,18.93
2022-09-15T06:33:44.981Z,19.55
2022-09-15T06:35:47.930Z,20.57
2022-09-15T06:37:51.750Z,17.53
2022-09-15T06:39:54.695Z,18.37
2022-09-15T06:42:05.891Z,19.92
2022-09-15T06:44:12.570Z,19.90
2022-09-15T06:46:17.481Z,19.48
2022-09-15T06:48:24.910Z,19.95
2022-09-15T06:50:28.246Z,19.97
2022-09-15T06:52:31.151Z,18.60
2022-09-15T06:54:34.715Z,20.38
2022-09-15T06:56:38.401Z,17.77
2022-09-15T06:58:43.077Z,18.40
2022-09-15T07:00:47.469Z,18.70
2022-09-15T07:02:50.773Z,19.08
2022-09-15T07:04:53.735Z,18.88
2022-09-15T07:06:56.662Z,19.13
2022-09-15T07:09:00.529Z,18.33
2022-09-15T07:11:04.296Z,19.90
2022-09-15T07:13:07.314Z,17.20
2022-09-15T07:15:11.674Z,17.40
2022-09-15T07:17:15.962Z,17.40
2022-09-15T07:19:18.782Z,16.27
2022-09-15T07:21:22.184Z,16.30
2022-09-15T07:23:25.410Z,16.30
2022-09-15T07:25:28.297Z,15.75
2022-09-15T07:27:31.921Z,14.77
2022-09-15T07:29:37.730Z,14.88
2022-09-15T07:31:41.535Z,14.82
2022-09-15T07:33:45.910Z,15.52
2022-09-15T07:35:48.906Z,14.85
2022-09-15T07:37:52.050Z,14.93
2022-09-15T07:39:55.045Z,14.60
2022-09-15T07:41:57.949Z,14.18
2022-09-15T07:44:01.618Z,14.02
2022-09-15T07:46:05.274Z,12.50
2022-09-15T07:48:08.299Z,13.63
2022-09-15T07:50:14.324Z,13.25
2022-09-15T07:52:17.266Z,12.82
2022-09-15T07:54:22.857Z,13.18
2022-09-15T07:56:26.966Z,11.80
2022-09-15T07:58:29.886Z,13.48
2022-09-15T08:00:32.858Z,11.50
2022-09-15T08:02:35.825Z,12.43
2022-09-15T08:04:38.815Z,12.93
2022-09-15T08:06:43.061Z,12.35
2022-09-15T08:08:46.166Z,11.48
2022-09-15T08:10:49.050Z,12.82
2022-09-15T08:12:52.359Z,11.80
2022-09-15T08:14:55.288Z,10.82
2022-09-15T08:17:00.966Z,11.55
2022-09-15T08:19:03.904Z,11.75
2022-09-15T08:21:12.302Z,10.88
2022-09-15T08:23:16.589Z,10.38
2022-09-15T08:25:19.465Z,10.00
2022-09-15T08:27:22.662Z,7.88
2022-09-15T08:29:25.817Z,8.55
2022-09-15T08:31:28.906Z,8.05
2022-09-15T08:33:31.892Z,8.80
2022-09-15T08:35:36.838Z,7.18
2022-09-15T08:37:39.924Z,8.25
2022-09-15T08:39:46.675Z,8.45
2022-09-15T08:41:51.605Z,7.82
2022-09-15T08:43:59.295Z,7.95
2022-09-15T08:46:06.138Z,8.18
2022-09-15T08:48:11.080Z,8.75
2022-09-15T08:50:23.047Z,7.15
2022-09-15T08:52:31.884Z,6.88
2022-09-15T08:54:35.224Z,7.18
2022-09-15T08:56:40.041Z,7.63
2022-09-15T08:58:42.963Z,6.20
2022-09-15T09:00:47.285Z,7.68
2022-09-15T09:03:17.254Z,7.10
2022-09-15T09:05:32.818Z,7.22
2022-09-15T09:07:59.747Z,8.43
2022-09-15T09:10:08.096Z,6.78
2022-09-15T09:12:22.398Z,5.70
2022-09-15T09:14:34.478Z,5.20
2022-09-15T09:16:45.606Z,6.95
2022-09-15T09:19:17.815Z,4.55
2022-09-15T09:21:24.151Z,2.92
2022-09-15T09:23:29.821Z,2.90
2022-09-15T09:25:32.784Z,1.88
2022-09-15T09:27:38.921Z,2.85
2022-09-15T09:29:44.902Z,2.35
2022-09-15T09:31:50.250Z,3.30
2022-09-15T09:33:56.573Z,2.40
2022-09-15T09:36:03.247Z,1.60
2022-09-15T09:38:06.221Z,1.95
2022-09-15T09:40:14.262Z,1.95
2022-09-15T09:42:19.129Z,1.63
2022-09-15T09:44:31.727Z,1.65
2022-09-15T09:46:35.068Z,2.00
2022-09-15T09:48:38.004Z,2.13
2022-09-15T09:50:43.202Z,2.03
2022-09-15T09:52:46.494Z,2.05
2022-09-15T09:54:51.601Z,2.05
2022-09-15T09:56:56.870Z,2.00
2022-09-15T09:58:59.876Z,2.28
2022-09-15T10:01:15.527Z,2.85
2022-09-15T10:03:20.725Z,1.70
2022-09-15T10:05:23.969Z,1.50
2022-09-15T10:07:27.849Z,1.98
2022-09-15T10:09:33.372Z,1.88
2022-09-15T10:11:41.487Z,1.63
2022-09-15T10:13:52.143Z,1.40
2022-09-15T10:15:56.703Z,1.77
2022-09-15T10:18:01.703Z,1.70
2022-09-15T10:20:07.199Z,1.42
2022-09-15T10:22:10.296Z,1.85
2022-09-15T10:24:33.741Z,1.80
2022-09-15T10:26:36.662Z,1.40
2022-09-15T10:28:39.626Z,1.60
2022-09-15T10:31:00.531Z,1.85
2022-09-15T10:33:19.759Z,1.77
2022-09-15T10:35:22.763Z,2.08
2022-09-15T10:37:28.962Z,1.30
2022-09-15T10:39:40.017Z,2.25
2022-09-15T10:41:47.282Z,1.80
2022-09-15T10:44:05.532Z,1.63
2022-09-15T10:46:14.557Z,1.80
2022-09-15T10:48:38.335Z,1.90
2022-09-15T10:50:48.915Z,2.08
2022-09-15T10:53:02.959Z,1.27
2022-09-15T10:55:31.900Z,1.75
2022-09-15T10:57:55.014Z,1.85
2022-09-15T11:00:05.495Z,1.65
2022-09-15T11:02:34.464Z,1.65
2022-09-15T11:04:58.436Z,2.05
2022-09-15T11:07:05.008Z,1.92
2022-09-15T11:09:16.326Z,2.33
2022-09-15T11:11:26.827Z,2.13
2022-09-15T11:13:34.413Z,2.38
2022-09-15T11:15:52.548Z,1.77
2022-09-15T11:18:08.007Z,1.55
2022-09-15T11:20:23.873Z,1.50
2022-09-15T11:22:29.347Z,1.83
2022-09-15T11:24:39.056Z,1.80
2022-09-15T11:26:45.360Z,1.90
2022-09-15T11:28:53.745Z,1.90
2022-09-15T11:31:01.031Z,1.48
2022-09-15T11:33:06.688Z,1.58
2022-09-15T11:35:37.460Z,1.73
2022-09-15T11:37:42.511Z,1.90
2022-09-15T11:39:51.011Z,2.00
2022-09-15T11:41:56.648Z,2.58
2022-09-15T11:44:10.131Z,1.83
2022-09-15T11:46:19.900Z,1.70
2022-09-15T11:48:28.538Z,1.80
2022-09-15T11:50:36.511Z,1.83
2022-09-15T11:52:50.558Z,1.77
2022-09-15T11:55:00.941Z,1.65
2022-09-15T11:57:04.296Z,1.33
2022-09-15T11:59:16.639Z,2.75
2022-09-15T12:01:21.225Z,1.83
2022-09-15T12:03:28.930Z,1.50
2022-09-15T12:05:37.877Z,1.48
2022-09-15T12:07:46.721Z,1.88
2022-09-15T12:09:49.900Z,1.55
2022-09-15T12:11:54.173Z,1.83
2022-09-15T12:13:59.486Z,1.42
2022-09-15T12:16:04.069Z,1.50
2022-09-15T12:18:34.869Z,1.42
2022-09-15T12:20:44.446Z,1.98
2022-09-15T12:22:52.397Z,1.40
2022-09-15T12:25:01.212Z,2.00
2022-09-15T12:27:05.992Z,1.98
2022-09-15T12:29:41.898Z,1.40
2022-09-15T12:31:46.991Z,1.85
2022-09-15T12:33:55.950Z,1.70
2022-09-15T12:36:39.102Z,2.40
2022-09-15T12:38:49.017Z,1.60
2022-09-15T12:40:58.001Z,3.35
2022-09-15T12:43:01.929Z,1.63
2022-09-15T12:45:06.781Z,1.50
2022-09-15T12:47:20.030Z,1.88
2022-09-15T12:49:28.837Z,1.55
2022-09-15T12:51:33.530Z,2.28
2022-09-15T12:53:39.607Z,1.38
2022-09-15T12:55:50.146Z,1.83
2022-09-15T12:57:55.261Z,1.48
2022-09-15T13:00:29.880Z,1.90
2022-09-15T13:02:46.758Z,1.55
2022-09-15T13:04:54.375Z,1.63
2022-09-15T13:07:32.634Z,1.60
2022-09-15T13:09:44.813Z,1.80
2022-09-15T13:11:51.136Z,2.17
2022-09-15T13:13:56.339Z,1.70
2022-09-15T13:15:59.479Z,1.50
2022-09-15T13:18:05.212Z,1.75
2022-09-15T13:20:11.861Z,2.10
2022-09-15T13:22:20.263Z,1.52
2022-09-15T13:24:35.865Z,1.70
2022-09-15T13:26:39.760Z,1.38
2022-09-15T13:28:44.764Z,1.80
2022-09-15T13:30:58.557Z,1.83
2022-09-15T13:33:06.030Z,3.17
2022-09-15T13:35:48.404Z,2.05
2022-09-15T13:38:31.628Z,2.15
2022-09-15T13:40:50.000Z,1.75
2022-09-15T13:43:04.978Z,2.20
2022-09-15T13:45:27.800Z,2.33
2022-09-15T13:47:42.526Z,1.85
2022-09-15T13:49:53.028Z,1.98
2022-09-15T13:51:59.879Z,1.42
2022-09-15T13:54:04.263Z,1.85
2022-09-15T13:56:13.437Z,2.22
2022-09-15T14:00:48.298Z,1.90
2022-09-15T14:02:54.194Z,1.35
2022-09-15T14:04:59.423Z,1.60
2022-09-15T14:07:02.807Z,2.20
2022-09-15T14:09:09.165Z,1.85
2022-09-15T14:11:18.346Z,1.60
2022-09-15T14:13:23.218Z,1.63
2022-09-15T14:15:27.276Z,1.67
2022-09-15T14:17:32.009Z,1.67
2022-09-15T14:19:36.511Z,1.48
2022-09-15T14:21:49.053Z,2.08
2022-09-15T14:23:54.924Z,1.88
2022-09-15T14:26:00.364Z,1.77
2022-09-15T14:28:05.686Z,2.03
2022-09-15T14:30:17.387Z,1.52
2022-09-15T14:32:20.419Z,1.70
2022-09-15T14:34:25.491Z,1.30
2022-09-15T14:36:31.332Z,1.70
2022-09-15T14:38:36.298Z,1.60
2022-09-15T14:40:41.360Z,1.30
2022-09-15T14:42:44.680Z,1.52
2022-09-15T14:47:13.451Z,1.23
2022-09-15T14:49:16.689Z,1.77
2022-09-15T14:51:22.673Z,2.13
2022-09-15T14:53:26.569Z,1.73
2022-09-15T14:55:30.960Z,1.60
2022-09-15T14:57:35.198Z,1.75
2022-09-15T14:59:40.217Z,1.80
2022-09-15T15:01:49.358Z,1.88
2022-09-15T15:03:57.584Z,1.45
2022-09-15T15:06:25.425Z,1.77
2022-09-15T15:08:34.085Z,1.80
2022-09-15T15:10:37.849Z,2.05
2022-09-15T15:12:43.055Z,1.40
2022-09-15T15:14:46.207Z,1.90
2022-09-15T15:16:57.713Z,2.13
2022-09-15T15:19:00.857Z,2.13
2022-09-15T15:21:04.098Z,1.60
2022-09-15T15:23:16.601Z,1.88
2022-09-15T15:25:24.963Z,1.98
2022-09-15T15:27:43.280Z,1.63
2022-09-15T15:29:47.192Z,1.80
2022-09-15T15:31:50.187Z,1.63
2022-09-15T15:33:57.165Z,1.90
2022-09-15T15:36:06.302Z,1.55
2022-09-15T15:38:16.394Z,1.30
2022-09-15T15:40:23.148Z,1.75
2022-09-15T15:42:28.501Z,1.38
2022-09-15T15:44:33.743Z,1.90
2022-09-15T15:46:50.806Z,1.48
2022-09-15T15:48:56.089Z,2.30
2022-09-15T15:50:59.574Z,1.38
2022-09-15T15:53:02.806Z,1.80
2022-09-15T15:55:07.242Z,1.70
2022-09-15T15:57:22.563Z,1.45
2022-09-15T15:59:26.202Z,1.65
2022-09-15T16:01:30.019Z,1.50
2022-09-15T16:03:34.507Z,1.88
2022-09-15T16:05:39.254Z,1.88
2022-09-15T16:07:44.687Z,1.90
2022-09-15T16:09:47.981Z,1.88
2022-09-15T16:11:51.176Z,2.70
2022-09-15T16:13:54.381Z,2.17
2022-09-15T16:16:00.083Z,2.13
2022-09-15T16:18:04.157Z,1.90
2022-09-15T16:20:07.981Z,2.30
2022-09-15T16:22:17.379Z,2.03
2022-09-15T16:24:20.382Z,2.15
2022-09-15T16:26:24.975Z,1.90
2022-09-15T16:28:28.667Z,1.98
2022-09-15T16:30:32.029Z,2.88
2022-09-15T16:32:35.384Z,2.55
2022-09-15T16:34:38.377Z,2.15
2022-09-15T16:36:41.328Z,1.77
2022-09-15T16:38:46.270Z,2.35
2022-09-15T16:40:49.654Z,1.88
2022-09-15T16:42:52.592Z,2.10
2022-09-15T16:44:55.491Z,1.58
2022-09-15T16:46:58.361Z,2.80
2022-09-15T16:49:01.364Z,1.63
2022-09-15T16:53:27.615Z,2.65
2022-09-15T16:55:36.978Z,2.70
2022-09-15T16:57:39.887Z,2.65
2022-09-15T16:59:42.924Z,3.03
2022-09-15T17:01:46.151Z,2.72
2022-09-15T17:03:50.489Z,2.65
2022-09-15T17:05:54.517Z,2.30
2022-09-15T17:07:57.621Z,2.33
2022-09-15T17:10:01.417Z,2.03
2022-09-15T17:12:06.491Z,2.92
2022-09-15T17:14:11.300Z,2.65
2022-09-15T17:16:16.125Z,1.70
2022-09-15T17:18:19.138Z,1.90
2022-09-15T17:20:23.149Z,2.42
2022-09-15T17:22:26.068Z,1.60
2022-09-15T17:24:29.618Z,2.20
2022-09-15T17:26:32.873Z,2.10
2022-09-15T17:28:37.768Z,2.80
2022-09-15T17:30:40.662Z,2.78
2022-09-15T17:32:43.789Z,1.55
2022-09-15T17:34:46.915Z,1.80
2022-09-15T17:36:49.954Z,2.40
2022-09-15T17:38:53.014Z,1.83
2022-09-15T17:40:56.693Z,1.52
2022-09-15T17:43:00.622Z,1.60
2022-09-15T17:45:14.710Z,1.70
2022-09-15T17:47:17.740Z,2.03
2022-09-15T17:49:20.682Z,1.92
2022-09-15T17:51:25.117Z,1.67
2022-09-15T17:53:30.893Z,1.80
2022-09-15T17:55:34.561Z,2.30
2022-09-15T17:57:37.469Z,1.73
2022-09-15T17:59:40.828Z,1.77
2022-09-15T18:01:46.498Z,2.13
2022-09-15T18:03:50.084Z,2.70
2022-09-15T18:05:53.419Z,2.47
2022-09-15T18:07:57.806Z,1.63
2022-09-15T18:10:03.590Z,2.60
2022-09-15T18:12:06.514Z,2.03
2022-09-15T18:14:10.024Z,1.85
2022-09-15T18:16:16.228Z,1.60
2022-09-15T18:18:21.766Z,2.10
2022-09-15T18:20:26.418Z,1.77
2022-09-15T18:22:29.560Z,1.73
2022-09-15T18:24:32.638Z,2.30
2022-09-15T18:26:35.909Z,1.92
2022-09-15T18:28:39.084Z,2.38
2022-09-15T18:30:43.930Z,2.30
2022-09-15T18:32:47.255Z,2.20
2022-09-15T18:34:51.786Z,1.70
2022-09-15T18:36:54.855Z,2.05
2022-09-15T18:38:58.131Z,2.03
2022-09-15T18:41:01.540Z,2.00
2022-09-15T18:43:05.509Z,2.58
2022-09-15T18:45:10.496Z,2.55
2022-09-15T18:47:13.411Z,2.05
2022-09-15T18:49:16.784Z,2.50
2022-09-15T18:51:29.132Z,2.05
2022-09-15T18:53:37.956Z,3.67
2022-09-15T18:55:41.739Z,3.65
2022-09-15T18:57:45.134Z,3.47
2022-09-15T18:59:48.157Z,3.17
2022-09-15T19:01:51.156Z,2.97
2022-09-15T19:03:54.266Z,2.75
2022-09-15T19:05:57.347Z,2.80
2022-09-15T19:08:02.485Z,3.20
2022-09-15T19:10:06.384Z,2.70
2022-09-15T19:12:09.708Z,2.80
2022-09-15T19:14:12.757Z,3.33
2022-09-15T19:16:15.937Z,1.48
2022-09-15T19:18:19.031Z,1.92
2022-09-15T19:20:22.671Z,2.53
2022-09-15T19:22:25.608Z,1.50
2022-09-15T19:24:33.591Z,1.67
2022-09-15T19:26:37.359Z,1.80
2022-09-15T19:28:40.602Z,1.50
2022-09-15T19:30:44.013Z,1.83
2022-09-15T19:32:47.292Z,1.48
2022-09-15T19:34:50.538Z,2.00
2022-09-15T19:36:53.471Z,1.38
2022-09-15T19:38:56.877Z,1.50
2022-09-15T19:41:05.215Z,1.92
2022-09-15T19:43:08.132Z,1.83
2022-09-15T19:45:12.387Z,2.25
2022-09-15T19:47:15.383Z,1.13
2022-09-15T19:49:18.315Z,7.13
2022-09-15T19:51:21.557Z,4.22
2022-09-15T19:53:24.563Z,2.40
2022-09-15T19:55:30.812Z,3.87
2022-09-15T19:57:35.559Z,2.07
2022-09-15T19:59:38.525Z,1.70
2022-09-15T20:01:41.503Z,1.45
2022-09-15T20:03:44.479Z,1.60
2022-09-15T20:05:50.837Z,1.20
2022-09-15T20:07:53.715Z,1.45
2022-09-15T20:09:58.741Z,1.70
2022-09-15T20:12:03.220Z,1.95
2022-09-15T20:14:07.668Z,1.35
2022-09-15T20:16:19.101Z,1.63
2022-09-15T20:18:23.091Z,1.23
2022-09-15T20:20:26.262Z,1.45
2022-09-15T20:22:29.198Z,1.90
2022-09-15T20:24:32.180Z,1.30
2022-09-15T20:26:36.704Z,1.50
2022-09-15T20:28:39.979Z,1.60
2022-09-15T20:30:44.313Z,1.27
2022-09-15T20:32:47.385Z,1.60
2022-09-15T20:34:51.962Z,2.00
2022-09-15T20:36:56.725Z,1.37
2022-09-15T20:38:59.598Z,1.38
2022-09-15T20:41:03.513Z,1.13
2022-09-15T20:43:06.404Z,1.83
2022-09-15T20:45:10.398Z,1.80
2022-09-15T20:47:15.098Z,1.70
2022-09-15T20:49:18.215Z,1.33
2022-09-15T20:51:22.811Z,1.40
2022-09-15T20:53:26.255Z,1.10
2022-09-15T20:55:29.499Z,1.20
2022-09-15T20:57:32.407Z,1.37
2022-09-15T20:59:35.262Z,1.80
2022-09-15T21:01:39.652Z,1.20
2022-09-15T21:03:45.393Z,0.90
2022-09-15T21:05:48.328Z,1.13
2022-09-15T21:07:52.040Z,1.50
2022-09-15T21:09:55.224Z,0.90
2022-09-15T21:11:58.161Z,1.00
2022-09-15T21:14:01.640Z,1.30
2022-09-15T21:16:15.091Z,1.27
2022-09-15T21:18:18.362Z,1.53
2022-09-15T21:20:22.586Z,1.30
2022-09-15T21:22:25.833Z,1.65
2022-09-15T21:24:28.733Z,1.00
2022-09-15T21:26:33.314Z,1.00
2022-09-15T21:28:36.434Z,1.58
2022-09-15T21:30:39.836Z,1.60
2022-09-15T21:32:42.699Z,1.33
2022-09-15T21:34:46.519Z,1.17
2022-09-15T21:36:50.912Z,1.08
2022-09-15T21:38:54.962Z,1.30
2022-09-15T21:40:57.918Z,1.52
2022-09-15T21:43:01.363Z,1.40
2022-09-15T21:45:04.909Z,1.20
2022-09-15T21:47:08.086Z,1.50
2022-09-15T21:49:11.617Z,1.30
2022-09-15T21:51:23.466Z,1.20
2022-09-15T21:53:29.587Z,0.93
2022-09-15T21:55:32.483Z,1.37
2022-09-15T21:57:35.368Z,1.17
2022-09-15T21:59:39.214Z,1.17
2022-09-15T22:01:42.244Z,1.03
2022-09-15T22:03:45.356Z,1.63
2022-09-15T22:05:48.476Z,1.33
2022-09-15T22:07:51.394Z,1.10
2022-09-15T22:09:56.356Z,1.27
2022-09-15T22:11:59.315Z,1.30
2022-09-15T22:14:03.041Z,1.10
2022-09-15T22:16:16.534Z,1.40
2022-09-15T22:18:19.561Z,1.23
2022-09-15T22:20:22.514Z,1.03
2022-09-15T22:22:25.837Z,0.97
2022-09-15T22:24:28.901Z,1.33
2022-09-15T22:26:35.026Z,0.93
2022-09-15T22:28:38.181Z,1.53
2022-09-15T22:30:41.117Z,1.07
2022-09-15T22:32:44.083Z,1.00
2022-09-15T22:34:47.058Z,1.00
2022-09-15T22:36:49.974Z,1.37
2022-09-15T22:38:53.463Z,1.40
2022-09-15T22:40:56.812Z,1.63
2022-09-15T22:43:01.153Z,1.77
2022-09-15T22:45:05.058Z,1.27
2022-09-15T22:47:08.060Z,1.03
2022-09-15T22:49:11.083Z,1.30
2022-09-15T22:51:16.806Z,1.70
2022-09-15T22:53:19.793Z,1.30
2022-09-15T22:55:23.002Z,1.43
2022-09-15T22:57:25.876Z,1.27
2022-09-15T22:59:30.919Z,1.20
2022-09-15T23:01:33.952Z,2.00
2022-09-15T23:03:37.475Z,1.13
2022-09-15T23:05:40.420Z,1.07
2022-09-15T23:07:43.410Z,1.60
2022-09-15T23:09:46.342Z,1.53
2022-09-15T23:11:49.525Z,1.33
2022-09-15T23:13:53.473Z,1.13
2022-09-15T23:15:57.820Z,1.52
2022-09-15T23:18:00.858Z,1.67
2022-09-15T23:20:05.552Z,2.30
2022-09-15T23:22:08.489Z,1.90
2022-09-15T23:24:12.471Z,1.37
2022-09-15T23:26:17.255Z,1.57
2022-09-15T23:28:20.382Z,1.30
2022-09-15T23:30:23.519Z,1.40
2022-09-15T23:32:27.848Z,1.37
2022-09-15T23:34:30.744Z,1.50
2022-09-15T23:36:33.601Z,1.30
2022-09-15T23:38:44.163Z,1.50
2022-09-15T23:40:48.409Z,1.90
2022-09-15T23:42:51.634Z,1.43
2022-09-15T23:44:54.532Z,2.23
2022-09-15T23:50:33.862Z,2.03
2022-09-15T23:52:36.825Z,1.87
2022-09-15T23:58:14.337Z,2.20
